Time;durP1;ratioP1;P1;durP2;ratioP2;P2;SDS_P1;SDS_P2;PMS_P1;PMS_P2;Temp;Humidity;BMP_temperature;BMP_pressure;BME280_temperature;BME280_humidity;BME280_pressure;Samples;Min_cycle;Max_cycle;Signal;HPM_P1;HPM_P2
2023/08/11 00:00:42;;;;;;;5.40;2.95;;;21.20;99.90;;;;;;4989933;28;20472;-72
2023/08/11 00:03:08;;;;;;;5.35;2.63;;;21.20;99.90;;;;;;5005879;28;20080;-72
2023/08/11 00:05:38;;;;;;;5.10;2.42;;;21.20;99.90;;;;;;4998736;28;20042;-72
2023/08/11 00:08:05;;;;;;;4.10;2.40;;;21.30;99.90;;;;;;4990878;28;20026;-72
2023/08/11 00:10:32;;;;;;;8.10;2.85;;;21.30;99.90;;;;;;4995659;28;20035;-72
2023/08/11 00:12:58;;;;;;;5.95;2.50;;;21.30;99.90;;;;;;4997418;28;20113;-72
2023/08/11 00:15:24;;;;;;;4.47;2.70;;;21.30;99.90;;;;;;4990640;28;20109;-72
2023/08/11 00:17:52;;;;;;;5.25;2.60;;;21.40;99.90;;;;;;4987697;28;20036;-72
2023/08/11 00:20:19;;;;;;;4.90;2.08;;;21.40;99.90;;;;;;4993093;28;20543;-72
2023/08/11 00:22:45;;;;;;;5.53;2.15;;;21.40;99.90;;;;;;4986143;28;20022;-72
2023/08/11 00:25:11;;;;;;;3.70;2.17;;;21.40;99.90;;;;;;4985130;28;20034;-72
2023/08/11 00:27:37;;;;;;;5.20;2.75;;;21.50;99.90;;;;;;4984954;28;20399;-73
2023/08/11 00:30:04;;;;;;;4.72;2.78;;;21.50;99.90;;;;;;4996851;28;20040;-72
2023/08/11 00:32:30;;;;;;;5.47;2.70;;;21.60;99.90;;;;;;4991026;28;20030;-72
2023/08/11 00:34:55;;;;;;;5.10;2.38;;;21.70;99.90;;;;;;4983828;28;20370;-72
2023/08/11 00:37:21;;;;;;;4.72;2.60;;;21.70;99.90;;;;;;4984867;28;20050;-72
2023/08/11 00:39:46;;;;;;;5.88;2.60;;;21.60;99.90;;;;;;4992477;28;20038;-72
2023/08/11 00:42:12;;;;;;;4.40;2.45;;;21.50;99.90;;;;;;4985212;28;20025;-72
2023/08/11 00:44:38;;;;;;;5.25;2.63;;;21.50;99.90;;;;;;4987374;28;20034;-72
2023/08/11 00:47:05;;;;;;;4.72;2.47;;;21.50;99.90;;;;;;4991646;28;20030;-72
2023/08/11 00:49:30;;;;;;;4.68;2.85;;;21.60;99.90;;;;;;4987745;28;20064;-73
2023/08/11 00:51:57;;;;;;;5.13;2.60;;;21.60;99.90;;;;;;4992406;28;20468;-72
2023/08/11 00:54:24;;;;;;;4.43;2.40;;;21.60;99.90;;;;;;4984949;28;20049;-72
2023/08/11 00:56:51;;;;;;;4.82;2.50;;;21.50;99.90;;;;;;4994060;28;20030;-72
2023/08/11 00:59:21;;;;;;;4.90;2.30;;;21.50;99.90;;;;;;4990791;28;20022;-72
2023/08/11 01:01:47;;;;;;;3.97;2.45;;;21.50;99.90;;;;;;4985429;28;20037;-72
2023/08/11 01:04:13;;;;;;;6.95;2.78;;;21.40;99.90;;;;;;4988096;28;20046;-72
2023/08/11 01:07:06;;;;;;;5.15;2.33;;;21.40;99.90;;;;;;4987675;28;20558;-72
2023/08/11 01:09:35;;;;;;;3.97;2.38;;;21.50;99.90;;;;;;4994014;28;20033;-72
2023/08/11 01:12:16;;;;;;;5.55;3.15;;;21.40;99.90;;;;;;4990470;28;20084;-72
2023/08/11 01:15:03;;;;;;;8.05;2.67;;;21.50;99.90;;;;;;5002306;28;20029;-72
2023/08/11 01:17:30;;;;;;;4.47;2.65;;;21.50;99.90;;;;;;4987336;28;20030;-72
2023/08/11 01:19:56;;;;;;;5.82;3.17;;;21.50;99.90;;;;;;4984703;28;21740;-72
2023/08/11 01:22:27;;;;;;;6.25;2.90;;;21.50;99.90;;;;;;4989288;28;20026;-72
2023/08/11 01:24:54;;;;;;;8.32;2.70;;;21.40;99.90;;;;;;4995268;28;20034;-72
2023/08/11 01:27:20;;;;;;;5.00;2.95;;;21.50;99.90;;;;;;4987950;28;20515;-72
2023/08/11 01:29:46;;;;;;;3.72;2.20;;;21.40;99.90;;;;;;4998263;28;20110;-72
2023/08/11 01:32:12;;;;;;;6.03;2.75;;;21.40;99.90;;;;;;4997854;28;20022;-72
2023/08/11 01:34:38;;;;;;;4.90;2.60;;;21.50;99.90;;;;;;4990332;28;20261;-72
2023/08/11 01:37:04;;;;;;;7.85;2.80;;;21.50;99.90;;;;;;4985687;28;20038;-72
2023/08/11 01:39:30;;;;;;;8.70;3.05;;;21.50;99.90;;;;;;4989417;28;20023;-72
2023/08/11 01:41:57;;;;;;;5.25;2.75;;;21.50;99.90;;;;;;4995795;28;20034;-72
2023/08/11 01:44:24;;;;;;;5.25;2.53;;;21.50;99.90;;;;;;4998559;28;20052;-72
2023/08/11 01:46:52;;;;;;;4.93;2.50;;;21.50;99.90;;;;;;4998847;28;20029;-72
2023/08/11 01:49:18;;;;;;;5.88;3.08;;;21.50;99.90;;;;;;4992970;28;20026;-72
2023/08/11 01:51:44;;;;;;;4.75;2.45;;;21.40;99.90;;;;;;4991226;28;20026;-72
2023/08/11 01:54:11;;;;;;;7.15;3.00;;;21.50;99.90;;;;;;4990014;28;20038;-72
2023/08/11 01:56:38;;;;;;;6.82;2.35;;;21.40;99.90;;;;;;4996167;28;20460;-72
2023/08/11 01:59:10;;;;;;;5.18;2.50;;;21.40;99.90;;;;;;4990144;28;20058;-72
2023/08/11 02:01:37;;;;;;;6.35;3.22;;;21.40;99.90;;;;;;4991916;28;20033;-72
2023/08/11 02:04:04;;;;;;;7.18;2.60;;;21.40;99.90;;;;;;4988385;28;20042;-72
2023/08/11 02:06:30;;;;;;;7.60;3.33;;;21.40;99.90;;;;;;4988421;28;20563;-72
2023/08/11 02:08:56;;;;;;;5.97;2.45;;;21.30;99.90;;;;;;4996465;28;20530;-72
2023/08/11 02:11:22;;;;;;;4.53;2.47;;;21.20;99.90;;;;;;4991415;28;20021;-72
2023/08/11 02:13:48;;;;;;;6.88;2.17;;;21.10;99.90;;;;;;4992161;28;20594;-72
2023/08/11 02:16:13;;;;;;;3.78;2.20;;;21.10;99.90;;;;;;4995025;28;20025;-72
2023/08/11 02:18:39;;;;;;;4.18;2.47;;;21.10;99.90;;;;;;4999889;28;20030;-72
2023/08/11 02:21:07;;;;;;;5.22;2.72;;;21.10;99.90;;;;;;4992733;28;20027;-72
2023/08/11 02:23:33;;;;;;;3.58;2.20;;;21.00;99.90;;;;;;4990326;28;20061;-72
2023/08/11 02:26:00;;;;;;;7.28;2.67;;;21.00;99.90;;;;;;4995128;28;20034;-72
2023/08/11 02:28:25;;;;;;;4.03;2.70;;;20.90;99.90;;;;;;4993450;28;20027;-72
2023/08/11 02:30:51;;;;;;;5.00;2.72;;;21.00;99.90;;;;;;4995049;28;20117;-72
2023/08/11 02:33:18;;;;;;;4.97;2.60;;;20.80;99.90;;;;;;4993202;28;20034;-72
2023/08/11 02:35:45;;;;;;;3.72;2.22;;;20.80;99.90;;;;;;4990280;28;20028;-72
2023/08/11 02:38:12;;;;;;;5.05;2.95;;;20.80;99.90;;;;;;4997197;28;20475;-72
2023/08/11 02:40:38;;;;;;;8.80;2.80;;;20.80;99.90;;;;;;5006973;28;20108;-72
2023/08/11 02:43:04;;;;;;;4.65;2.60;;;20.80;99.90;;;;;;4992535;28;20443;-72
2023/08/11 02:45:30;;;;;;;5.22;3.00;;;20.80;99.90;;;;;;4992912;28;20117;-72
2023/08/11 02:47:56;;;;;;;4.57;2.90;;;20.80;99.90;;;;;;4992296;28;20038;-72
2023/08/11 02:50:22;;;;;;;5.60;2.72;;;20.80;99.90;;;;;;4993881;28;20088;-72
2023/08/11 02:52:48;;;;;;;4.60;2.75;;;20.70;99.90;;;;;;4993175;28;20412;-72
2023/08/11 02:55:14;;;;;;;5.53;2.88;;;20.70;99.90;;;;;;4991847;28;20112;-72
2023/08/11 02:57:41;;;;;;;4.68;2.65;;;20.60;99.90;;;;;;4991966;28;20030;-72
2023/08/11 03:00:12;;;;;;;5.45;2.67;;;20.70;99.90;;;;;;5005515;28;20030;-72
2023/08/11 03:02:39;;;;;;;5.13;2.92;;;20.60;99.90;;;;;;4995347;28;20030;-72
2023/08/11 03:05:07;;;;;;;4.07;2.35;;;20.60;99.90;;;;;;4989342;28;20058;-72
2023/08/11 03:07:36;;;;;;;4.45;2.97;;;20.60;99.90;;;;;;4993553;28;20026;-72
2023/08/11 03:10:03;;;;;;;6.47;2.47;;;20.60;99.90;;;;;;4996993;28;20887;-72
2023/08/11 03:12:28;;;;;;;4.32;2.80;;;20.50;99.90;;;;;;4996248;28;20106;-72
2023/08/11 03:14:55;;;;;;;6.38;2.75;;;20.50;99.90;;;;;;4990678;28;20818;-72
2023/08/11 03:17:21;;;;;;;4.47;2.58;;;20.50;99.90;;;;;;4998122;28;20426;-72
2023/08/11 03:19:46;;;;;;;4.38;2.63;;;20.40;99.90;;;;;;4992947;28;20050;-72
2023/08/11 03:22:13;;;;;;;5.38;2.90;;;20.20;99.90;;;;;;4995895;28;20466;-72
2023/08/11 03:24:39;;;;;;;7.45;3.20;;;20.10;99.90;;;;;;4988161;28;20038;-72
2023/08/11 03:27:06;;;;;;;7.55;3.00;;;20.10;99.90;;;;;;4986563;28;20686;-72
2023/08/11 03:29:32;;;;;;;6.65;3.22;;;20.00;99.90;;;;;;4987041;28;20110;-72
2023/08/11 03:31:57;;;;;;;7.80;2.70;;;20.00;99.90;;;;;;4988066;28;20110;-72
2023/08/11 03:34:23;;;;;;;6.15;3.40;;;20.00;99.90;;;;;;4996480;28;20042;-72
2023/08/11 03:36:48;;;;;;;5.60;2.55;;;19.90;99.90;;;;;;4996526;28;20144;-71
2023/08/11 03:39:14;;;;;;;5.10;3.28;;;19.90;99.90;;;;;;4988004;28;20050;-72
2023/08/11 03:41:40;;;;;;;6.53;3.00;;;19.90;99.90;;;;;;4986301;28;20442;-72
2023/08/11 03:44:06;;;;;;;4.63;3.13;;;19.90;99.90;;;;;;4994920;28;20050;-72
2023/08/11 03:46:31;;;;;;;7.00;3.53;;;19.90;99.90;;;;;;4992512;28;20026;-72
2023/08/11 03:48:57;;;;;;;6.70;3.05;;;19.80;99.90;;;;;;4994799;28;20038;-72
2023/08/11 03:51:23;;;;;;;5.22;2.90;;;19.70;99.90;;;;;;4996411;28;20037;-72
2023/08/11 03:53:48;;;;;;;5.25;3.58;;;19.60;99.90;;;;;;4994077;28;20115;-72
2023/08/11 03:56:14;;;;;;;7.20;3.08;;;19.50;99.90;;;;;;4987938;28;20034;-72
2023/08/11 03:58:40;;;;;;;5.95;3.00;;;19.30;99.90;;;;;;4986985;28;20033;-72
2023/08/11 04:01:05;;;;;;;5.15;3.10;;;19.40;99.90;;;;;;4983820;28;20030;-72
2023/08/11 04:03:31;;;;;;;5.22;3.30;;;19.40;99.90;;;;;;4984338;28;20045;-72
2023/08/11 04:05:58;;;;;;;4.65;2.50;;;19.40;99.90;;;;;;4992088;28;21014;-72
2023/08/11 04:08:25;;;;;;;5.60;2.80;;;19.40;99.90;;;;;;4989919;28;20034;-72
2023/08/11 04:10:52;;;;;;;5.90;2.55;;;19.30;99.90;;;;;;4982773;28;20049;-72
2023/08/11 04:13:17;;;;;;;5.80;3.05;;;19.20;99.90;;;;;;4990403;28;20022;-72
2023/08/11 04:15:45;;;;;;;6.30;2.97;;;19.20;99.90;;;;;;4984053;28;20461;-72
2023/08/11 04:18:11;;;;;;;4.15;3.00;;;19.20;99.90;;;;;;4992928;28;20026;-72
2023/08/11 04:20:37;;;;;;;5.28;3.08;;;19.10;99.90;;;;;;4985851;28;20125;-72
2023/08/11 04:23:03;;;;;;;5.20;3.25;;;19.10;99.90;;;;;;4982922;28;20026;-72
2023/08/11 04:25:29;;;;;;;4.45;3.00;;;19.30;99.90;;;;;;4983947;28;20034;-72
2023/08/11 04:27:55;;;;;;;5.70;3.38;;;19.20;99.90;;;;;;4989521;28;20160;-72
2023/08/11 04:30:21;;;;;;;5.65;2.88;;;19.20;99.90;;;;;;4982819;28;20030;-72
2023/08/11 04:32:47;;;;;;;4.28;3.13;;;19.30;99.90;;;;;;4982586;28;20022;-72
2023/08/11 04:35:13;;;;;;;9.18;3.28;;;19.30;99.90;;;;;;4990385;28;20060;-72
2023/08/11 04:37:40;;;;;;;8.73;3.50;;;19.30;99.90;;;;;;4984550;28;20128;-72
2023/08/11 04:40:10;;;;;;;4.97;3.15;;;19.30;99.90;;;;;;4987070;28;20388;-72
2023/08/11 04:42:39;;;;;;;5.05;3.15;;;19.30;99.90;;;;;;4987957;28;20105;-72
2023/08/11 04:45:05;;;;;;;6.30;3.20;;;19.30;99.90;;;;;;4983672;28;20488;-72
2023/08/11 04:47:31;;;;;;;4.68;2.92;;;19.30;99.90;;;;;;4990870;28;20140;-72
2023/08/11 04:49:57;;;;;;;5.68;3.00;;;19.30;99.90;;;;;;4991039;28;20117;-72
2023/08/11 04:52:23;;;;;;;5.55;3.50;;;19.40;99.90;;;;;;4982471;28;20026;-72
2023/08/11 04:54:49;;;;;;;4.07;2.80;;;19.40;99.90;;;;;;4983742;28;20038;-72
2023/08/11 04:57:14;;;;;;;5.32;2.80;;;19.50;99.90;;;;;;4992506;28;20527;-72
2023/08/11 04:59:40;;;;;;;5.95;3.33;;;19.40;99.90;;;;;;4986622;28;20030;-72
2023/08/11 05:02:07;;;;;;;4.88;2.90;;;19.50;99.90;;;;;;4991567;28;20034;-72
2023/08/11 05:04:33;;;;;;;6.38;3.10;;;19.40;99.90;;;;;;4986325;28;20038;-72
2023/08/11 05:06:59;;;;;;;8.40;3.67;;;19.30;99.90;;;;;;4997776;28;20038;-72
2023/08/11 05:09:25;;;;;;;11.82;3.30;;;19.30;99.90;;;;;;4994810;28;20037;-72
2023/08/11 05:11:50;;;;;;;6.18;3.50;;;19.30;99.90;;;;;;4985207;28;20034;-72
2023/08/11 05:14:17;;;;;;;5.97;3.08;;;19.30;99.90;;;;;;4991463;28;20033;-72
2023/08/11 05:16:46;;;;;;;8.50;3.30;;;19.30;99.90;;;;;;4986296;28;20081;-72
2023/08/11 05:19:15;;;;;;;5.03;2.92;;;19.30;99.90;;;;;;4989462;28;20096;-72
2023/08/11 05:21:41;;;;;;;10.50;3.58;;;19.40;99.90;;;;;;4983363;28;20710;-71
2023/08/11 05:24:07;;;;;;;5.32;3.38;;;19.40;99.90;;;;;;4995862;28;20041;-71
2023/08/11 05:26:32;;;;;;;4.45;2.92;;;19.50;99.90;;;;;;4997592;28;20030;-71
2023/08/11 05:28:58;;;;;;;4.65;3.20;;;19.60;99.90;;;;;;4986381;28;20030;-71
2023/08/11 05:31:24;;;;;;;6.15;3.03;;;19.80;99.90;;;;;;4988662;28;20081;-72
2023/08/11 05:33:50;;;;;;;6.60;3.28;;;19.90;99.90;;;;;;4986177;28;20133;-73
2023/08/11 05:36:15;;;;;;;6.13;3.45;;;20.00;99.90;;;;;;4992542;28;20030;-71
2023/08/11 05:38:41;;;;;;;5.80;3.08;;;20.00;99.90;;;;;;4986136;28;20682;-72
2023/08/11 05:41:07;;;;;;;8.63;3.25;;;20.10;99.90;;;;;;4988504;28;20882;-72
2023/08/11 05:43:32;;;;;;;4.50;2.80;;;20.20;99.90;;;;;;4989316;28;20039;-72
2023/08/11 05:45:58;;;;;;;5.65;3.03;;;20.30;99.90;;;;;;4987560;28;20380;-71
2023/08/11 05:48:24;;;;;;;6.00;2.78;;;20.40;99.90;;;;;;4990117;28;20040;-72
2023/08/11 05:50:50;;;;;;;7.05;4.13;;;20.50;99.90;;;;;;4985682;28;20437;-74
2023/08/11 05:53:16;;;;;;;5.18;3.30;;;20.60;99.90;;;;;;4993499;28;20030;-71
2023/08/11 05:55:41;;;;;;;6.20;3.22;;;20.60;99.90;;;;;;4989606;28;20051;-72
2023/08/11 05:58:07;;;;;;;4.25;3.10;;;20.70;99.90;;;;;;4988192;28;20040;-72
2023/08/11 06:00:33;;;;;;;5.82;3.45;;;20.60;99.90;;;;;;4992560;28;20030;-72
2023/08/11 06:02:59;;;;;;;8.80;3.95;;;20.70;99.90;;;;;;4986614;28;20045;-72
2023/08/11 06:05:25;;;;;;;4.60;2.85;;;20.70;99.90;;;;;;4983780;28;20026;-71
2023/08/11 06:07:51;;;;;;;4.70;2.88;;;20.70;99.90;;;;;;4986976;28;20048;-71
2023/08/11 06:10:16;;;;;;;5.35;2.75;;;20.70;99.90;;;;;;4987406;28;20034;-72
2023/08/11 06:12:42;;;;;;;6.78;3.22;;;20.70;99.90;;;;;;4993109;28;20056;-71
2023/08/11 06:15:08;;;;;;;4.35;2.60;;;20.60;99.90;;;;;;4987799;28;20033;-71
2023/08/11 06:17:35;;;;;;;4.07;2.95;;;20.70;99.90;;;;;;4987338;28;20125;-72
2023/08/11 06:20:02;;;;;;;5.40;2.88;;;20.70;99.90;;;;;;4991225;28;20029;-72
2023/08/11 06:22:27;;;;;;;5.78;2.70;;;20.80;99.90;;;;;;4993545;28;20029;-72
2023/08/11 06:24:54;;;;;;;5.07;3.10;;;20.80;99.90;;;;;;4988117;28;20050;-72
2023/08/11 06:27:19;;;;;;;5.97;3.13;;;20.90;99.90;;;;;;4992846;28;20493;-71
2023/08/11 06:29:45;;;;;;;5.35;2.60;;;21.00;99.90;;;;;;4993494;28;20044;-72
2023/08/11 06:32:11;;;;;;;5.25;2.97;;;21.20;99.90;;;;;;4988720;28;20352;-72
2023/08/11 06:34:36;;;;;;;4.88;2.85;;;21.50;99.90;;;;;;4985212;28;20623;-72
2023/08/11 06:37:02;;;;;;;4.60;3.42;;;21.60;99.90;;;;;;4998364;28;20464;-72
2023/08/11 06:39:28;;;;;;;9.32;3.08;;;21.80;99.90;;;;;;4991530;28;20038;-72
2023/08/11 06:41:54;;;;;;;4.97;3.38;;;21.80;99.90;;;;;;4991321;28;20453;-72
2023/08/11 06:44:19;;;;;;;7.82;3.08;;;22.00;99.90;;;;;;4995274;28;20037;-72
2023/08/11 06:46:45;;;;;;;5.35;3.05;;;22.10;99.90;;;;;;5000100;28;20033;-72
2023/08/11 06:49:11;;;;;;;5.50;3.13;;;22.20;99.90;;;;;;4995963;28;20036;-73
2023/08/11 06:51:36;;;;;;;8.57;3.20;;;22.30;99.90;;;;;;4994380;28;20043;-73
2023/08/11 06:54:02;;;;;;;7.60;3.30;;;22.40;99.90;;;;;;4998660;28;20034;-72
2023/08/11 06:56:28;;;;;;;8.95;2.90;;;22.60;99.90;;;;;;4998239;28;20045;-72
2023/08/11 06:58:54;;;;;;;8.30;2.50;;;22.70;99.90;;;;;;4997603;28;20056;-72
2023/08/11 07:01:19;;;;;;;9.65;3.10;;;22.80;99.90;;;;;;4996289;28;20034;-72
2023/08/11 07:03:45;;;;;;;10.57;3.20;;;22.90;99.90;;;;;;4993674;28;20095;-73
2023/08/11 07:06:11;;;;;;;9.35;2.72;;;23.10;99.90;;;;;;4986970;28;20030;-72
2023/08/11 07:08:37;;;;;;;6.72;3.13;;;23.40;99.90;;;;;;4994565;28;20030;-73
2023/08/11 07:11:02;;;;;;;3.97;2.63;;;23.90;99.90;;;;;;5000085;28;20467;-73
2023/08/11 07:13:28;;;;;;;7.63;2.60;;;24.60;99.90;;;;;;4997351;28;20065;-72
2023/08/11 07:15:56;;;;;;;6.28;2.58;;;25.60;99.90;;;;;;4990532;28;20041;-73
2023/08/11 07:18:22;;;;;;;4.88;3.13;;;26.70;99.90;;;;;;4999935;28;20113;-72
2023/08/11 07:20:48;;;;;;;4.53;2.28;;;27.50;98.30;;;;;;4996175;28;20054;-73
2023/08/11 07:23:13;;;;;;;5.32;2.33;;;28.40;97.20;;;;;;4993925;28;20076;-72
2023/08/11 07:25:40;;;;;;;8.35;2.88;;;28.90;96.50;;;;;;5000844;28;20375;-72
2023/08/11 07:28:06;;;;;;;4.90;2.97;;;29.30;95.70;;;;;;4986370;28;20031;-72
2023/08/11 07:30:32;;;;;;;5.25;2.42;;;29.80;95.30;;;;;;4990343;28;20022;-72
2023/08/11 07:32:58;;;;;;;7.43;2.60;;;29.80;95.00;;;;;;4997004;28;20105;-72
2023/08/11 07:35:24;;;;;;;7.85;2.70;;;29.50;95.20;;;;;;5000306;28;20026;-72
2023/08/11 07:37:49;;;;;;;7.28;3.20;;;29.80;94.90;;;;;;4997121;28;20112;-72
2023/08/11 07:40:16;;;;;;;4.38;2.70;;;30.10;94.30;;;;;;4993583;28;20448;-73
2023/08/11 07:42:42;;;;;;;5.10;2.83;;;30.40;94.10;;;;;;4995104;28;20045;-72
2023/08/11 07:45:08;;;;;;;5.40;2.83;;;30.30;93.80;;;;;;4995322;28;20033;-73
2023/08/11 07:47:34;;;;;;;6.22;2.83;;;30.00;93.90;;;;;;4995458;28;20458;-72
2023/08/11 07:50:00;;;;;;;5.72;2.38;;;30.10;93.30;;;;;;4995860;28;20026;-72
2023/08/11 07:52:25;;;;;;;6.50;3.22;;;29.90;93.90;;;;;;4994012;28;20046;-72
2023/08/11 07:54:51;;;;;;;5.40;2.60;;;27.90;95.10;;;;;;4994402;28;20033;-72
2023/08/11 07:57:17;;;;;;;5.15;2.85;;;26.10;96.70;;;;;;4998051;28;22175;-71
2023/08/11 07:59:43;;;;;;;4.55;2.78;;;25.20;98.30;;;;;;4994539;28;20463;-70
2023/08/11 08:02:08;;;;;;;6.45;3.40;;;24.40;99.50;;;;;;4994683;28;20040;-70
2023/08/11 08:04:34;;;;;;;4.13;2.78;;;24.00;99.90;;;;;;4992515;28;20097;-72
2023/08/11 08:07:00;;;;;;;6.00;2.60;;;24.00;99.90;;;;;;4999238;28;20042;-71
2023/08/11 08:09:26;;;;;;;8.35;3.38;;;24.00;99.90;;;;;;4996197;28;20116;-71
2023/08/11 08:11:51;;;;;;;6.63;2.88;;;24.00;99.90;;;;;;4993344;28;20037;-71
2023/08/11 08:14:18;;;;;;;8.50;3.45;;;23.80;99.90;;;;;;4992539;28;20035;-71
2023/08/11 08:16:46;;;;;;;4.90;2.67;;;23.80;99.90;;;;;;4993634;28;20042;-71
2023/08/11 08:19:14;;;;;;;6.97;3.20;;;23.80;99.90;;;;;;4998341;28;20023;-71
2023/08/11 08:21:41;;;;;;;6.65;3.03;;;23.80;99.90;;;;;;4998474;28;20029;-71
2023/08/11 08:24:07;;;;;;;7.53;3.03;;;23.90;99.90;;;;;;5000684;28;20073;-72
2023/08/11 08:26:34;;;;;;;5.82;2.92;;;24.40;99.90;;;;;;4990990;28;20022;-71
2023/08/11 08:29:00;;;;;;;6.40;3.35;;;26.40;99.20;;;;;;5003110;28;20108;-70
2023/08/11 08:31:27;;;;;;;6.03;3.28;;;28.30;96.40;;;;;;4996821;28;20598;-71
2023/08/11 08:33:53;;;;;;;7.22;3.13;;;28.70;96.00;;;;;;4994434;28;20034;-71
2023/08/11 08:36:19;;;;;;;5.20;2.83;;;28.80;95.60;;;;;;4995606;28;20030;-71
2023/08/11 08:38:44;;;;;;;4.30;2.53;;;29.40;95.40;;;;;;4992045;28;20560;-71
2023/08/11 08:41:12;;;;;;;5.38;3.17;;;29.50;95.00;;;;;;4995667;28;20037;-71
2023/08/11 08:43:38;;;;;;;7.85;3.22;;;30.10;94.90;;;;;;5000156;28;20486;-71
2023/08/11 08:46:04;;;;;;;7.53;2.90;;;30.20;95.00;;;;;;4999962;28;20061;-72
2023/08/11 08:48:55;;;;;;;5.30;3.13;;;30.20;95.20;;;;;;4988861;28;20037;-71
2023/08/11 08:51:21;;;;;;;6.85;4.00;;;29.00;95.00;;;;;;5003212;28;20072;-71
2023/08/11 08:53:48;;;;;;;6.10;2.75;;;28.50;96.00;;;;;;5005586;28;20117;-71
2023/08/11 08:56:14;;;;;;;6.93;2.70;;;27.70;96.60;;;;;;5007905;28;20020;-71
2023/08/11 08:58:41;;;;;;;6.38;3.13;;;26.50;97.60;;;;;;5003219;28;20041;-71
2023/08/11 09:01:09;;;;;;;8.13;2.72;;;26.30;98.20;;;;;;5007032;28;20411;-71
2023/08/11 09:03:36;;;;;;;5.65;2.78;;;26.40;98.50;;;;;;5007859;28;20041;-70
2023/08/11 09:06:05;;;;;;;6.85;3.40;;;26.10;98.70;;;;;;5007863;28;20033;-71
2023/08/11 09:08:32;;;;;;;5.22;3.22;;;26.00;98.90;;;;;;5005139;28;20050;-71
2023/08/11 09:10:58;;;;;;;4.15;2.63;;;25.90;98.50;;;;;;5005291;28;20066;-71
2023/08/11 09:13:26;;;;;;;6.07;3.13;;;26.00;98.30;;;;;;5008605;28;20060;-71
2023/08/11 09:15:51;;;;;;;5.47;2.97;;;25.90;98.50;;;;;;5008529;28;20472;-71
2023/08/11 09:18:17;;;;;;;7.10;3.50;;;25.80;98.00;;;;;;4993746;28;20034;-71
2023/08/11 09:20:46;;;;;;;6.75;3.35;;;25.80;99.30;;;;;;5005617;28;20025;-70
2023/08/11 09:23:12;;;;;;;5.20;2.97;;;25.90;98.60;;;;;;5007716;28;20034;-71
2023/08/11 09:25:38;;;;;;;6.13;3.20;;;25.80;97.90;;;;;;5007635;28;20084;-71
2023/08/11 09:28:04;;;;;;;4.82;3.20;;;25.90;98.70;;;;;;5008693;28;20033;-71
2023/08/11 09:30:31;;;;;;;8.05;3.35;;;25.80;97.50;;;;;;5002786;28;20030;-71
2023/08/11 09:33:00;;;;;;;6.43;2.90;;;25.70;98.00;;;;;;5007337;28;20029;-71
2023/08/11 09:35:26;;;;;;;4.85;3.00;;;25.90;98.10;;;;;;5005505;28;20066;-71
2023/08/11 09:37:55;;;;;;;4.65;2.92;;;26.00;97.50;;;;;;5008195;28;20089;-71
2023/08/11 09:40:22;;;;;;;4.68;3.20;;;26.00;97.50;;;;;;5005067;28;20037;-71
2023/08/11 09:42:48;;;;;;;8.90;3.00;;;26.40;97.60;;;;;;5008237;28;20030;-71
2023/08/11 09:45:14;;;;;;;6.82;2.72;;;26.70;98.10;;;;;;5008214;28;20034;-71
2023/08/11 09:47:40;;;;;;;6.97;2.92;;;26.90;97.40;;;;;;5001746;28;20115;-71
2023/08/11 09:50:08;;;;;;;5.03;3.55;;;27.30;98.30;;;;;;4995264;28;20065;-71
2023/08/11 09:52:36;;;;;;;4.55;2.80;;;27.10;97.30;;;;;;4996952;28;20019;-71
2023/08/11 09:55:06;;;;;;;8.45;2.92;;;27.10;96.60;;;;;;4992682;28;20045;-71
2023/08/11 09:57:35;;;;;;;6.60;3.42;;;27.30;96.80;;;;;;4988645;28;20022;-72
2023/08/11 10:00:01;;;;;;;8.52;3.22;;;27.20;96.50;;;;;;4991477;28;20389;-72
2023/08/11 10:02:30;;;;;;;6.93;2.80;;;27.10;97.70;;;;;;4990192;28;20042;-71
2023/08/11 10:05:06;;;;;;;4.28;2.53;;;27.60;97.30;;;;;;4991371;28;20068;-72
2023/08/11 10:07:41;;;;;;;7.22;2.63;;;27.60;96.90;;;;;;4989461;28;20026;-71
2023/08/11 10:10:29;;;;;;;4.65;2.70;;;27.30;96.90;;;;;;4991151;28;20080;-72
2023/08/11 10:13:21;;;;;;;6.75;3.80;;;27.50;98.00;;;;;;4992672;28;20038;-72
2023/08/11 10:15:48;;;;;;;4.75;3.03;;;27.30;98.10;;;;;;4984855;28;20081;-72
2023/08/11 10:18:16;;;;;;;6.20;2.58;;;27.30;98.20;;;;;;4987064;28;20022;-72
2023/08/11 10:20:42;;;;;;;4.47;2.70;;;27.40;97.90;;;;;;4988704;28;20753;-70
2023/08/11 10:23:08;;;;;;;6.05;2.72;;;27.90;97.10;;;;;;4984657;28;20031;-72
2023/08/11 10:25:35;;;;;;;6.88;2.97;;;28.10;96.40;;;;;;4983751;28;20031;-72
2023/08/11 10:28:02;;;;;;;4.97;2.35;;;28.10;96.60;;;;;;4984752;28;20069;-73
2023/08/11 10:30:28;;;;;;;5.05;2.72;;;27.80;96.60;;;;;;4984709;28;20022;-71
2023/08/11 10:33:08;;;;;;;4.63;2.25;;;27.70;96.50;;;;;;4993011;28;20038;-72
2023/08/11 10:35:51;;;;;;;4.90;2.72;;;27.80;96.40;;;;;;4984780;28;20026;-72
2023/08/11 10:38:37;;;;;;;6.77;2.80;;;28.00;96.30;;;;;;4987419;28;20081;-72
2023/08/11 10:41:04;;;;;;;6.10;2.58;;;28.20;96.70;;;;;;4983880;28;20049;-73
2023/08/11 10:43:40;;;;;;;8.45;2.42;;;28.60;96.50;;;;;;4990750;28;20041;-73
2023/08/11 10:46:23;;;;;;;7.00;2.55;;;28.80;95.90;;;;;;4984856;28;20030;-72
2023/08/11 10:49:13;;;;;;;4.35;2.58;;;28.80;96.40;;;;;;4987685;28;20038;-72
2023/08/11 10:51:42;;;;;;;6.20;2.80;;;28.70;96.80;;;;;;4965966;28;20042;-73
2023/08/11 10:54:13;;;;;;;4.28;2.63;;;28.80;96.60;;;;;;4989098;28;20053;-72
2023/08/11 10:56:41;;;;;;;5.85;2.92;;;28.60;95.80;;;;;;4983325;28;20030;-72
2023/08/11 10:59:08;;;;;;;6.13;2.67;;;28.50;96.70;;;;;;4985425;28;20038;-72
2023/08/11 11:01:39;;;;;;;8.70;2.47;;;28.70;96.50;;;;;;5000442;28;20449;-73
2023/08/11 11:04:06;;;;;;;5.90;2.78;;;28.80;96.70;;;;;;4986372;28;20046;-72
2023/08/11 11:06:33;;;;;;;5.82;2.70;;;29.00;97.00;;;;;;4996001;28;20029;-72
2023/08/11 11:08:59;;;;;;;5.72;3.25;;;28.80;95.70;;;;;;4990531;28;20031;-73
2023/08/11 11:11:25;;;;;;;5.50;2.47;;;29.00;96.90;;;;;;4985389;28;20030;-72
2023/08/11 11:13:51;;;;;;;4.95;2.80;;;29.20;96.20;;;;;;4988643;28;20641;-73
2023/08/11 11:16:19;;;;;;;5.32;1.88;;;29.10;96.30;;;;;;4993596;28;20031;-72
2023/08/11 11:18:47;;;;;;;4.30;2.55;;;29.30;95.40;;;;;;4988542;28;20218;-72
2023/08/11 11:21:13;;;;;;;4.43;2.10;;;29.50;96.00;;;;;;4987054;28;20034;-73
2023/08/11 11:23:47;;;;;;;5.18;2.47;;;29.60;95.40;;;;;;4993539;28;20042;-73
2023/08/11 11:26:33;;;;;;;5.28;2.53;;;29.70;95.60;;;;;;4986345;28;20085;-73
2023/08/11 11:29:02;;;;;;;5.72;2.20;;;29.80;95.50;;;;;;4989365;28;20037;-72
2023/08/11 11:31:30;;;;;;;5.10;2.67;;;29.80;95.50;;;;;;4990556;28;20060;-72
2023/08/11 11:33:56;;;;;;;3.67;1.98;;;30.00;94.80;;;;;;4999501;28;20041;-72
2023/08/11 11:36:23;;;;;;;4.43;2.15;;;30.20;94.70;;;;;;4993595;28;20559;-73
2023/08/11 11:38:49;;;;;;;6.20;2.38;;;30.10;94.70;;;;;;4991234;28;20290;-73
2023/08/11 11:41:19;;;;;;;5.60;2.30;;;30.30;94.70;;;;;;4988805;28;20560;-72
2023/08/11 11:43:46;;;;;;;4.65;1.77;;;30.30;95.00;;;;;;4993987;28;20045;-73
2023/08/11 11:46:16;;;;;;;3.92;2.03;;;30.20;95.00;;;;;;4987297;28;20089;-72
2023/08/11 11:48:46;;;;;;;3.88;1.92;;;30.00;94.60;;;;;;4996575;28;20018;-72
2023/08/11 11:51:13;;;;;;;9.77;3.03;;;29.70;95.10;;;;;;4985384;28;20049;-72
2023/08/11 11:53:39;;;;;;;4.90;2.53;;;29.90;95.40;;;;;;4987986;28;20503;-72
2023/08/11 11:56:05;;;;;;;3.97;2.20;;;29.80;95.20;;;;;;4990905;28;20034;-73
2023/08/11 11:58:33;;;;;;;4.80;2.30;;;29.70;95.00;;;;;;4989378;28;20041;-73
2023/08/11 12:01:27;;;;;;;3.80;2.22;;;29.70;95.40;;;;;;4985481;28;20062;-73
2023/08/11 12:03:58;;;;;;;6.75;2.25;;;29.90;95.00;;;;;;4992241;28;20660;-73
2023/08/11 12:06:26;;;;;;;4.35;2.38;;;30.00;95.10;;;;;;4993999;28;20021;-73
2023/08/11 12:08:51;;;;;;;4.22;2.38;;;29.90;95.20;;;;;;4992768;28;20026;-72
2023/08/11 12:11:24;;;;;;;5.88;2.50;;;30.10;95.20;;;;;;4987525;28;20035;-72
2023/08/11 12:13:50;;;;;;;3.47;2.28;;;30.30;95.00;;;;;;4985167;28;20505;-72
2023/08/11 12:16:16;;;;;;;3.90;2.35;;;30.20;95.30;;;;;;4990608;28;20023;-73
2023/08/11 12:18:42;;;;;;;6.90;2.58;;;30.30;95.60;;;;;;4985914;28;20026;-73
2023/08/11 12:21:09;;;;;;;16.30;3.25;;;30.40;95.60;;;;;;4991747;28;20035;-73
2023/08/11 12:23:35;;;;;;;9.35;2.50;;;30.50;95.30;;;;;;4986067;28;20030;-72
2023/08/11 12:26:01;;;;;;;5.28;2.10;;;30.50;95.00;;;;;;4994108;28;20030;-72
2023/08/11 12:28:27;;;;;;;6.20;2.25;;;30.30;94.90;;;;;;4986666;28;20428;-72
2023/08/11 12:30:53;;;;;;;6.43;2.50;;;30.20;95.30;;;;;;4990875;28;20535;-71
2023/08/11 12:33:18;;;;;;;4.50;2.53;;;30.10;94.90;;;;;;4992141;28;20042;-72
2023/08/11 12:35:47;;;;;;;5.05;2.10;;;30.30;95.00;;;;;;4992771;28;20026;-72
2023/08/11 12:38:13;;;;;;;6.18;2.55;;;30.30;95.00;;;;;;4985711;28;20957;-72
2023/08/11 12:40:44;;;;;;;4.10;2.47;;;30.50;95.20;;;;;;4987076;28;20014;-72
2023/08/11 12:43:10;;;;;;;6.13;2.35;;;30.30;95.20;;;;;;4994821;28;22561;-72
2023/08/11 12:45:36;;;;;;;8.98;3.53;;;30.30;95.10;;;;;;4991417;28;20034;-72